createdAt,value
2023-05-19T00:02:20.981Z,48.38
2023-05-19T00:04:48.340Z,48.14
2023-05-19T00:07:18.180Z,48.15
2023-05-19T00:09:44.949Z,48.30
2023-05-19T00:12:12.255Z,48.57
2023-05-19T00:14:38.927Z,48.83
2023-05-19T00:17:05.852Z,48.31
2023-05-19T00:19:32.423Z,48.51
2023-05-19T00:21:59.124Z,48.89
2023-05-19T00:24:25.641Z,48.25
2023-05-19T00:26:52.343Z,48.98
2023-05-19T00:29:19.126Z,49.40
2023-05-19T00:31:46.212Z,48.97
2023-05-19T00:34:12.803Z,49.26
2023-05-19T00:36:39.366Z,49.48
2023-05-19T00:39:06.001Z,49.30
2023-05-19T00:41:32.622Z,49.42
2023-05-19T00:43:59.761Z,49.60
2023-05-19T00:46:26.274Z,49.30
2023-05-19T00:48:53.107Z,49.73
2023-05-19T00:51:19.972Z,50.38
2023-05-19T00:53:49.490Z,50.50
2023-05-19T00:56:16.849Z,51.25
2023-05-19T00:58:44.118Z,51.07
2023-05-19T01:01:12.084Z,51.06
2023-05-19T01:03:40.914Z,50.82
2023-05-19T01:06:08.086Z,51.36
2023-05-19T01:08:36.720Z,50.79
2023-05-19T01:11:04.340Z,51.34
2023-05-19T01:13:31.640Z,51.85
2023-05-19T01:16:07.673Z,51.36
2023-05-19T01:18:56.737Z,52.06
2023-05-19T01:21:48.888Z,51.57
2023-05-19T01:24:34.112Z,51.29
2023-05-19T01:27:14.399Z,51.49
2023-05-19T01:30:17.847Z,51.25
2023-05-19T01:32:45.829Z,52.04
2023-05-19T01:35:15.453Z,51.44
2023-05-19T01:37:42.685Z,51.78
2023-05-19T01:40:10.047Z,51.49
2023-05-19T01:42:39.840Z,52.03
2023-05-19T01:45:10.626Z,52.30
2023-05-19T01:47:42.897Z,52.93
2023-05-19T01:50:10.141Z,52.57
2023-05-19T01:52:36.753Z,52.55
2023-05-19T01:55:03.569Z,52.80
2023-05-19T01:57:52.224Z,52.48
2023-05-19T02:00:52.126Z,52.15
2023-05-19T02:03:36.997Z,52.59
2023-05-19T02:06:18.398Z,52.70
2023-05-19T02:08:56.651Z,52.43
2023-05-19T02:11:30.869Z,52.39
2023-05-19T02:14:01.399Z,52.60
2023-05-19T02:16:29.321Z,52.53
2023-05-19T02:18:56.493Z,53.00
2023-05-19T02:21:22.990Z,53.12
2023-05-19T02:23:50.803Z,53.16
2023-05-19T02:26:17.324Z,53.42
2023-05-19T02:28:43.832Z,53.57
2023-05-19T02:31:10.337Z,53.85
2023-05-19T02:33:37.426Z,54.04
2023-05-19T02:36:04.413Z,54.36
2023-05-19T02:38:30.968Z,54.36
2023-05-19T02:40:57.445Z,54.32
2023-05-19T02:43:23.878Z,54.66
2023-05-19T02:45:50.367Z,54.61
2023-05-19T02:48:16.846Z,54.48
2023-05-19T02:50:43.318Z,54.36
2023-05-19T02:53:09.855Z,54.16
2023-05-19T02:55:36.619Z,54.66
2023-05-19T02:58:03.174Z,54.70
2023-05-19T03:00:29.834Z,54.93
2023-05-19T03:02:56.490Z,55.20
2023-05-19T03:05:23.000Z,55.22
2023-05-19T03:07:49.544Z,54.48
2023-05-19T03:10:16.260Z,54.82
2023-05-19T03:12:42.720Z,54.67
2023-05-19T03:15:09.522Z,54.89
2023-05-19T03:17:36.245Z,54.44
2023-05-19T03:20:02.907Z,54.50
2023-05-19T03:22:29.629Z,54.70
2023-05-19T03:24:56.247Z,54.35
2023-05-19T03:27:22.669Z,54.33
2023-05-19T03:29:49.151Z,54.24
2023-05-19T03:32:15.864Z,54.39
2023-05-19T03:34:42.408Z,53.89
2023-05-19T03:37:10.677Z,54.42
2023-05-19T03:39:37.157Z,54.34
2023-05-19T03:42:03.717Z,54.20
2023-05-19T03:44:30.570Z,54.71
2023-05-19T03:46:57.332Z,54.25
2023-05-19T03:49:23.772Z,54.28
2023-05-19T03:51:50.468Z,54.59
2023-05-19T03:54:17.049Z,54.14
2023-05-19T03:56:43.664Z,54.37
2023-05-19T03:59:13.032Z,54.41
2023-05-19T04:01:39.667Z,54.93
2023-05-19T04:04:06.164Z,54.46
2023-05-19T04:06:33.868Z,54.12
2023-05-19T04:09:00.426Z,54.30
2023-05-19T04:11:26.903Z,54.42
2023-05-19T04:13:53.444Z,54.30
2023-05-19T04:16:19.986Z,54.44
2023-05-19T04:18:46.649Z,54.36
2023-05-19T04:21:13.327Z,54.00
2023-05-19T04:23:39.835Z,55.00
2023-05-19T04:26:06.910Z,54.97
2023-05-19T04:28:36.073Z,54.18
2023-05-19T04:31:03.525Z,54.09
2023-05-19T04:33:30.043Z,54.47
2023-05-19T04:35:56.910Z,53.88
2023-05-19T04:38:23.482Z,53.30
2023-05-19T04:40:51.975Z,53.91
2023-05-19T04:43:19.308Z,53.57
2023-05-19T04:45:47.368Z,53.36
2023-05-19T04:48:14.031Z,52.61
2023-05-19T04:50:42.231Z,52.52
2023-05-19T04:53:09.584Z,52.60
2023-05-19T04:55:37.081Z,52.50
2023-05-19T04:58:04.356Z,52.32
2023-05-19T05:00:31.099Z,52.01
2023-05-19T05:02:58.094Z,52.05
2023-05-19T05:05:27.276Z,51.86
2023-05-19T05:07:54.217Z,52.05
2023-05-19T05:10:21.734Z,52.27
2023-05-19T05:12:48.484Z,52.53
2023-05-19T05:15:15.456Z,52.33
2023-05-19T05:17:42.306Z,52.04
2023-05-19T05:20:10.228Z,52.34
2023-05-19T05:22:38.571Z,51.97
2023-05-19T05:25:05.743Z,51.41
2023-05-19T05:27:32.684Z,51.26
2023-05-19T05:29:59.338Z,49.52
2023-05-19T05:32:26.106Z,47.20
2023-05-19T05:34:52.825Z,45.91
2023-05-19T05:37:19.278Z,46.17
2023-05-19T05:39:46.209Z,44.47
2023-05-19T05:42:12.705Z,44.40
2023-05-19T05:44:39.364Z,42.39
2023-05-19T05:47:06.329Z,42.90
2023-05-19T05:49:33.113Z,42.15
2023-05-19T05:52:05.709Z,41.83
2023-05-19T05:54:33.526Z,42.37
2023-05-19T05:57:00.656Z,41.02
2023-05-19T05:59:27.517Z,39.47
2023-05-19T06:01:54.159Z,39.15
2023-05-19T06:04:21.362Z,39.24
2023-05-19T06:06:47.910Z,40.01
2023-05-19T06:09:14.376Z,39.81
2023-05-19T06:11:41.024Z,40.58
2023-05-19T06:14:07.508Z,39.58
2023-05-19T06:16:34.054Z,41.17
2023-05-19T06:19:00.675Z,41.06
2023-05-19T06:21:27.462Z,41.46
2023-05-19T06:23:54.242Z,41.50
2023-05-19T06:26:20.912Z,40.39
2023-05-19T06:28:47.477Z,41.28
2023-05-19T06:31:14.027Z,42.08
2023-05-19T06:33:40.648Z,41.66
2023-05-19T06:36:08.518Z,42.17
2023-05-19T06:38:34.981Z,43.36
2023-05-19T06:41:01.474Z,41.40
2023-05-19T06:43:29.088Z,41.95
2023-05-19T06:45:55.774Z,41.55
2023-05-19T06:48:22.172Z,42.23
2023-05-19T06:50:48.979Z,41.73
2023-05-19T06:53:17.593Z,44.22
2023-05-19T06:55:54.796Z,45.80
2023-05-19T06:58:26.681Z,44.79
2023-05-19T07:00:53.330Z,46.08
2023-05-19T07:03:19.920Z,45.46
2023-05-19T07:05:46.617Z,47.68
2023-05-19T07:08:13.040Z,48.15
2023-05-19T07:10:39.617Z,47.99
2023-05-19T07:13:06.445Z,46.38
2023-05-19T07:15:33.077Z,46.83
2023-05-19T07:17:59.674Z,45.62
2023-05-19T07:20:26.366Z,46.02
2023-05-19T07:22:52.867Z,47.36
2023-05-19T07:25:19.419Z,48.28
2023-05-19T07:27:45.960Z,48.35
2023-05-19T07:30:12.827Z,48.83
2023-05-19T07:32:39.303Z,48.60
2023-05-19T07:35:06.641Z,49.08
2023-05-19T07:37:33.077Z,49.29
2023-05-19T07:39:59.618Z,49.00
2023-05-19T07:42:26.086Z,49.72
2023-05-19T07:44:52.530Z,49.26
2023-05-19T07:47:19.032Z,49.85
2023-05-19T07:49:45.685Z,49.99
2023-05-19T07:52:12.149Z,49.39
2023-05-19T07:54:38.660Z,49.53
2023-05-19T07:57:05.787Z,48.66
2023-05-19T07:59:32.470Z,49.58
2023-05-19T08:01:58.988Z,48.36
2023-05-19T08:04:25.465Z,49.62
2023-05-19T08:06:53.145Z,49.26
2023-05-19T08:09:20.194Z,48.63
2023-05-19T08:11:50.009Z,50.00
2023-05-19T08:14:16.816Z,49.24
2023-05-19T08:16:44.063Z,49.53
2023-05-19T08:19:10.687Z,48.23
2023-05-19T08:21:37.324Z,48.29
2023-05-19T08:24:04.380Z,48.54
2023-05-19T08:26:30.863Z,49.20
2023-05-19T08:28:57.380Z,47.60
2023-05-19T08:31:24.869Z,47.92
2023-05-19T08:33:51.420Z,47.13
2023-05-19T08:36:18.325Z,47.85
2023-05-19T08:38:44.929Z,47.72
2023-05-19T08:41:11.422Z,47.92
2023-05-19T08:43:39.696Z,47.36
2023-05-19T08:46:08.145Z,47.13
2023-05-19T08:48:35.870Z,46.49
2023-05-19T08:51:11.306Z,47.09
2023-05-19T08:53:43.941Z,46.75
2023-05-19T08:56:22.022Z,47.22
2023-05-19T08:58:50.453Z,46.93
2023-05-19T09:01:18.439Z,46.52
2023-05-19T09:03:46.760Z,46.38
2023-05-19T09:06:13.411Z,47.45
2023-05-19T09:08:41.448Z,46.91
2023-05-19T09:11:09.715Z,46.72
2023-05-19T09:13:36.327Z,46.15
2023-05-19T09:16:03.508Z,46.27
2023-05-19T09:18:31.145Z,46.71
2023-05-19T09:21:00.259Z,47.40
2023-05-19T09:23:33.387Z,47.95
2023-05-19T09:26:05.037Z,48.20
2023-05-19T09:28:33.482Z,46.53
2023-05-19T09:31:07.294Z,46.51
2023-05-19T09:33:39.102Z,46.39
2023-05-19T09:36:08.352Z,46.43
2023-05-19T09:38:36.415Z,46.10
2023-05-19T09:41:05.696Z,45.88
2023-05-19T09:43:34.174Z,46.60
2023-05-19T09:46:04.852Z,46.44
2023-05-19T09:48:31.568Z,47.04
2023-05-19T09:50:58.247Z,45.54
2023-05-19T09:53:25.539Z,46.70
2023-05-19T09:55:58.934Z,46.95
2023-05-19T09:58:26.606Z,46.39
2023-05-19T10:00:54.803Z,46.63
2023-05-19T10:03:23.888Z,46.58
2023-05-19T10:05:50.450Z,46.40
2023-05-19T10:08:17.948Z,47.13
2023-05-19T10:10:48.287Z,47.31
2023-05-19T10:13:16.583Z,48.39
2023-05-19T10:15:57.327Z,47.95
2023-05-19T10:18:26.622Z,48.50
2023-05-19T10:20:54.285Z,47.96
2023-05-19T10:23:21.178Z,48.10
2023-05-19T10:25:49.243Z,47.81
2023-05-19T10:28:18.897Z,47.94
2023-05-19T10:30:49.357Z,48.09
2023-05-19T10:33:18.262Z,48.01
2023-05-19T10:36:13.841Z,47.78
2023-05-19T10:38:48.333Z,47.98
2023-05-19T10:41:41.749Z,48.45
2023-05-19T10:44:26.818Z,48.60
2023-05-19T10:46:55.751Z,48.67
2023-05-19T10:49:24.045Z,48.15
2023-05-19T10:51:52.325Z,47.46
2023-05-19T10:54:40.720Z,47.71
2023-05-19T10:57:08.501Z,48.48
2023-05-19T10:59:37.883Z,48.26
2023-05-19T11:02:05.321Z,48.88
2023-05-19T11:04:51.321Z,47.53
2023-05-19T11:07:24.581Z,46.50
2023-05-19T11:09:54.378Z,47.55
2023-05-19T11:12:25.472Z,47.24
2023-05-19T11:14:55.532Z,47.34
2023-05-19T11:17:26.097Z,47.37
2023-05-19T11:19:55.534Z,47.13
2023-05-19T11:22:26.907Z,47.23
2023-05-19T11:24:57.690Z,46.92
2023-05-19T11:27:34.648Z,46.45
2023-05-19T11:30:19.202Z,46.79
2023-05-19T11:32:48.214Z,48.20
2023-05-19T11:35:15.732Z,47.32
2023-05-19T11:37:42.733Z,46.58
2023-05-19T11:40:09.555Z,45.90
2023-05-19T11:42:36.972Z,47.11
2023-05-19T11:45:04.232Z,46.37
2023-05-19T11:47:42.584Z,46.40
2023-05-19T11:50:20.166Z,46.57
2023-05-19T11:52:47.567Z,45.81
2023-05-19T11:55:24.200Z,46.28
2023-05-19T12:00:37.159Z,47.61
2023-05-19T12:03:04.213Z,47.23
2023-05-19T12:05:34.504Z,47.34
2023-05-19T12:08:02.821Z,48.13
2023-05-19T12:10:31.541Z,48.68
2023-05-19T12:12:59.309Z,48.23
2023-05-19T12:15:25.965Z,48.29
2023-05-19T12:18:01.510Z,47.17
2023-05-19T12:20:29.693Z,46.70
2023-05-19T12:22:56.420Z,47.49
2023-05-19T12:25:23.665Z,47.88
2023-05-19T12:27:52.687Z,47.98
2023-05-19T12:30:26.192Z,48.26
2023-05-19T12:32:54.222Z,48.62
2023-05-19T12:35:23.243Z,48.27
2023-05-19T12:37:50.567Z,47.58
2023-05-19T12:40:17.317Z,47.14
2023-05-19T12:42:48.736Z,46.01
2023-05-19T12:45:15.594Z,47.08
2023-05-19T12:47:42.077Z,47.82
2023-05-19T12:50:10.338Z,47.13
2023-05-19T12:52:53.058Z,47.83
2023-05-19T12:55:20.915Z,46.66
2023-05-19T12:57:54.759Z,46.17
2023-05-19T13:00:25.177Z,46.70
2023-05-19T13:02:59.853Z,46.01
2023-05-19T13:05:31.229Z,46.77
2023-05-19T13:07:59.196Z,45.81
2023-05-19T13:10:27.711Z,45.04
2023-05-19T13:12:55.661Z,44.78
2023-05-19T13:15:23.624Z,45.45
2023-05-19T13:17:50.434Z,45.00
2023-05-19T13:20:17.007Z,45.14
2023-05-19T13:22:43.445Z,44.74
2023-05-19T13:25:10.697Z,45.25
2023-05-19T13:27:37.752Z,45.34
2023-05-19T13:30:05.082Z,44.98
2023-05-19T13:32:31.586Z,43.85
2023-05-19T13:34:58.679Z,44.58
2023-05-19T13:37:25.355Z,45.62
2023-05-19T13:39:53.194Z,45.27
2023-05-19T13:42:19.772Z,44.99
2023-05-19T13:44:47.825Z,45.03
2023-05-19T13:47:14.360Z,46.78
2023-05-19T13:49:41.522Z,45.45
2023-05-19T13:52:08.251Z,45.72
2023-05-19T13:54:35.055Z,45.81
2023-05-19T13:57:01.551Z,45.52
2023-05-19T13:59:28.651Z,45.41
2023-05-19T14:01:55.658Z,45.95
2023-05-19T14:04:23.682Z,45.86
2023-05-19T14:06:50.650Z,45.55
2023-05-19T14:09:17.346Z,45.19
2023-05-19T14:11:44.069Z,45.18
2023-05-19T14:14:11.601Z,44.82
2023-05-19T14:16:38.580Z,44.31
2023-05-19T14:19:05.098Z,44.68
2023-05-19T14:21:32.542Z,43.93
2023-05-19T14:23:59.037Z,46.50
2023-05-19T14:26:27.457Z,47.37
2023-05-19T14:28:56.945Z,46.55
2023-05-19T14:31:23.983Z,46.09
2023-05-19T14:33:51.383Z,46.39
2023-05-19T14:36:18.392Z,45.42
2023-05-19T14:38:44.928Z,44.87
2023-05-19T14:41:11.589Z,45.42
2023-05-19T14:43:38.077Z,44.32
2023-05-19T14:46:04.625Z,44.65
2023-05-19T14:48:31.112Z,45.34
2023-05-19T14:50:57.557Z,45.34
2023-05-19T14:53:24.041Z,45.92
2023-05-19T14:55:50.528Z,45.79
2023-05-19T14:58:28.254Z,46.22
2023-05-19T15:00:58.119Z,45.87
2023-05-19T15:03:24.979Z,46.74
2023-05-19T15:05:51.690Z,47.13
2023-05-19T15:08:18.206Z,47.19
2023-05-19T15:10:48.676Z,47.34
2023-05-19T15:13:15.509Z,48.76
2023-05-19T15:15:41.996Z,48.60
2023-05-19T15:18:08.473Z,48.22
2023-05-19T15:20:35.278Z,48.42
2023-05-19T15:23:02.072Z,47.96
2023-05-19T15:25:28.628Z,47.01
2023-05-19T15:27:55.221Z,47.50
2023-05-19T15:30:22.126Z,47.76
2023-05-19T15:32:48.953Z,47.04
2023-05-19T15:35:16.904Z,46.90
2023-05-19T15:37:43.676Z,46.92
2023-05-19T15:40:10.492Z,46.73
2023-05-19T15:42:37.134Z,47.04
2023-05-19T15:45:04.112Z,46.47
2023-05-19T15:47:30.650Z,46.71
2023-05-19T15:49:57.119Z,46.25
2023-05-19T15:52:23.683Z,45.88
2023-05-19T15:54:50.223Z,46.24
2023-05-19T15:57:17.067Z,46.53
2023-05-19T15:59:43.767Z,46.19
2023-05-19T16:02:11.361Z,45.93
2023-05-19T16:04:37.972Z,45.26
2023-05-19T16:07:04.589Z,45.23
2023-05-19T16:09:31.208Z,45.68
2023-05-19T16:11:57.756Z,44.59
2023-05-19T16:14:24.466Z,44.93
2023-05-19T16:16:51.409Z,44.44
2023-05-19T16:19:18.280Z,44.29
2023-05-19T16:21:45.020Z,44.79
2023-05-19T16:24:11.518Z,45.04
2023-05-19T16:26:38.063Z,45.83
2023-05-19T16:29:04.908Z,45.94
2023-05-19T16:31:31.435Z,45.78
2023-05-19T16:33:58.254Z,45.62
2023-05-19T16:36:24.993Z,45.30
2023-05-19T16:38:51.460Z,45.20
2023-05-19T16:41:18.127Z,44.86
2023-05-19T16:43:44.980Z,45.06
2023-05-19T16:46:12.521Z,44.28
2023-05-19T16:48:39.083Z,44.46
2023-05-19T16:51:05.773Z,44.49
2023-05-19T16:53:32.396Z,44.65
2023-05-19T16:55:59.301Z,45.18
2023-05-19T16:58:27.200Z,44.94
2023-05-19T17:00:56.934Z,45.14
2023-05-19T17:03:24.007Z,45.70
2023-05-19T17:05:50.731Z,45.28
2023-05-19T17:08:17.152Z,45.82
2023-05-19T17:10:44.770Z,45.90
2023-05-19T17:13:11.761Z,46.30
2023-05-19T17:15:38.378Z,46.01
2023-05-19T17:18:05.761Z,46.13
2023-05-19T17:20:32.445Z,45.93
2023-05-19T17:22:59.329Z,46.00
2023-05-19T17:25:25.965Z,46.42
2023-05-19T17:27:52.515Z,46.08
2023-05-19T17:30:19.118Z,46.04
2023-05-19T17:32:45.884Z,45.57
2023-05-19T17:35:12.857Z,45.52
2023-05-19T17:37:39.602Z,45.70
2023-05-19T17:40:06.831Z,45.79
2023-05-19T17:42:33.446Z,45.76
2023-05-19T17:45:00.170Z,45.51
2023-05-19T17:47:26.750Z,45.74
2023-05-19T17:49:53.499Z,45.61
2023-05-19T17:52:20.583Z,46.44
2023-05-19T17:54:47.560Z,46.50
2023-05-19T17:57:16.967Z,46.42
2023-05-19T17:59:43.853Z,47.20
2023-05-19T18:02:10.768Z,47.38
2023-05-19T18:04:37.930Z,47.20
2023-05-19T18:07:06.150Z,47.30
2023-05-19T18:09:35.744Z,47.66
2023-05-19T18:12:02.805Z,47.58
2023-05-19T18:14:29.706Z,48.00
2023-05-19T18:16:56.349Z,47.98
2023-05-19T18:19:22.870Z,48.21
2023-05-19T18:21:49.423Z,48.53
2023-05-19T18:24:16.195Z,49.17
2023-05-19T18:26:43.469Z,49.30
2023-05-19T18:29:11.042Z,50.37
2023-05-19T18:31:37.818Z,50.49
2023-05-19T18:34:04.686Z,51.91
2023-05-19T18:36:31.639Z,53.16
2023-05-19T18:38:59.186Z,53.62
2023-05-19T18:41:26.135Z,54.72
2023-05-19T18:43:52.682Z,55.23
2023-05-19T18:46:19.847Z,56.03
2023-05-19T18:48:47.640Z,56.25
2023-05-19T18:51:15.715Z,56.53
2023-05-19T18:53:42.282Z,57.09
2023-05-19T18:56:11.330Z,57.20
2023-05-19T18:58:37.899Z,57.46
2023-05-19T19:01:05.307Z,58.21
2023-05-19T19:03:32.253Z,58.27
2023-05-19T19:05:59.576Z,58.68
2023-05-19T19:08:26.344Z,58.99
2023-05-19T19:10:53.617Z,58.79
2023-05-19T19:13:20.603Z,59.12
2023-05-19T19:15:47.028Z,59.09
2023-05-19T19:18:13.793Z,59.38
2023-05-19T19:20:40.293Z,59.20
2023-05-19T19:23:06.898Z,59.20
2023-05-19T19:25:33.579Z,59.15
2023-05-19T19:28:00.167Z,59.34
2023-05-19T19:30:27.210Z,59.38
2023-05-19T19:32:54.850Z,59.09
2023-05-19T19:35:21.762Z,59.14
2023-05-19T19:37:48.464Z,58.95
2023-05-19T19:40:14.880Z,59.23
2023-05-19T19:42:41.346Z,59.59
2023-05-19T19:45:13.117Z,59.85
2023-05-19T19:47:41.754Z,60.43
2023-05-19T19:50:09.182Z,60.60
2023-05-19T19:52:35.661Z,60.65
2023-05-19T19:55:02.107Z,60.69
2023-05-19T19:57:29.996Z,60.65
2023-05-19T19:59:59.833Z,60.69
2023-05-19T20:02:26.466Z,60.41
2023-05-19T20:04:53.145Z,60.12
2023-05-19T20:07:20.878Z,59.74
2023-05-19T20:09:49.484Z,59.90
2023-05-19T20:12:16.097Z,60.13
2023-05-19T20:14:42.556Z,59.91
2023-05-19T20:17:09.102Z,60.16
2023-05-19T20:19:35.843Z,60.06
2023-05-19T20:22:02.404Z,59.83
2023-05-19T20:24:28.894Z,60.19
2023-05-19T20:26:55.307Z,60.24
2023-05-19T20:29:23.777Z,60.37
2023-05-19T20:31:50.242Z,60.57
2023-05-19T20:34:16.713Z,60.35
2023-05-19T20:36:43.193Z,59.92
2023-05-19T20:39:10.182Z,59.91
2023-05-19T20:41:37.026Z,60.04
2023-05-19T20:44:03.660Z,59.60
2023-05-19T20:46:30.319Z,59.36
2023-05-19T20:48:57.023Z,59.60
2023-05-19T20:51:25.198Z,59.46
2023-05-19T20:53:51.700Z,59.58
2023-05-19T20:56:19.666Z,59.73
2023-05-19T20:58:46.209Z,59.73
2023-05-19T21:01:12.827Z,60.23
2023-05-19T21:03:39.310Z,60.32
2023-05-19T21:06:05.850Z,59.94
2023-05-19T21:08:32.315Z,60.05
2023-05-19T21:10:59.492Z,59.80
2023-05-19T21:13:25.956Z,60.01
2023-05-19T21:15:52.460Z,60.17
2023-05-19T21:18:18.909Z,60.64
2023-05-19T21:20:45.322Z,60.69
2023-05-19T21:23:11.761Z,60.42
2023-05-19T21:25:45.409Z,60.76
2023-05-19T21:28:12.279Z,60.85
2023-05-19T21:30:38.868Z,60.94
2023-05-19T21:33:05.685Z,61.44
2023-05-19T21:35:32.400Z,61.14
2023-05-19T21:38:03.889Z,61.01
2023-05-19T21:40:35.600Z,61.13
2023-05-19T21:43:02.309Z,60.94
2023-05-19T21:45:29.106Z,60.80
2023-05-19T21:47:55.838Z,61.20
2023-05-19T21:50:22.405Z,61.36
2023-05-19T21:52:48.816Z,61.45
2023-05-19T21:55:15.669Z,61.41
2023-05-19T21:57:42.300Z,61.61
2023-05-19T22:00:12.840Z,61.71
2023-05-19T22:02:40.407Z,61.46
2023-05-19T22:05:06.987Z,61.90
2023-05-19T22:07:33.517Z,62.30
2023-05-19T22:10:00.075Z,61.89
2023-05-19T22:12:26.523Z,62.07
2023-05-19T22:14:53.018Z,62.13
2023-05-19T22:17:21.819Z,62.54
2023-05-19T22:19:48.312Z,62.20
2023-05-19T22:22:14.941Z,62.54
2023-05-19T22:24:41.743Z,62.37
2023-05-19T22:27:08.706Z,62.30
2023-05-19T22:29:38.400Z,61.96
2023-05-19T22:32:07.578Z,62.15
2023-05-19T22:34:34.041Z,62.38
2023-05-19T22:37:00.613Z,62.76
2023-05-19T22:39:27.125Z,62.96
2023-05-19T22:41:53.649Z,62.53
2023-05-19T22:44:20.287Z,62.87
2023-05-19T22:46:46.842Z,63.00
2023-05-19T22:49:13.331Z,62.81
2023-05-19T22:51:40.028Z,63.08
2023-05-19T22:54:07.923Z,63.03
2023-05-19T22:56:34.594Z,63.21
2023-05-19T22:59:01.435Z,63.01
2023-05-19T23:01:27.963Z,62.97
2023-05-19T23:03:54.678Z,62.62
2023-05-19T23:06:21.910Z,62.62
2023-05-19T23:08:58.521Z,62.64
2023-05-19T23:11:25.021Z,62.94
2023-05-19T23:13:51.490Z,63.24
2023-05-19T23:16:18.032Z,63.29
2023-05-19T23:18:44.580Z,63.39
2023-05-19T23:21:11.074Z,63.73
2023-05-19T23:23:37.593Z,64.11
2023-05-19T23:26:04.169Z,63.87
2023-05-19T23:28:30.622Z,64.10
2023-05-19T23:30:57.224Z,63.65
2023-05-19T23:33:23.709Z,63.75
2023-05-19T23:35:50.271Z,63.82
2023-05-19T23:38:16.710Z,63.60
2023-05-19T23:40:43.869Z,63.19
2023-05-19T23:43:10.621Z,63.15
2023-05-19T23:45:37.183Z,63.22
2023-05-19T23:48:04.081Z,63.25
2023-05-19T23:50:30.691Z,63.34
2023-05-19T23:52:57.119Z,63.24
2023-05-19T23:55:23.573Z,63.09
2023-05-19T23:57:50.049Z,63.07
